AKJ1403 VAAH-VIDP
Flight info
| Callsign | AKJ1403 |
|---|---|
| Flight time | N/A |
| Altitude | 39000 |
| Route | UUD1A UUD A347 UKASO UKASO6G |
| Aircraft | B38M/M-SDE1FGHILORVWXY/HB1 |
Departure
| Time | 2026-05-09 07:50 |
|---|---|
| Airport | Sardar Vallabh Patel International Airport (VAAH) |
Arrival
| Time | N/A |
|---|---|
| Airport | Indira Gandhi International Airport (VIDP) |
| Time | Latitude | Longitude | Altitude | Speed | Heading |
|---|---|---|---|---|---|
| 2026-05-09 06:59 | 23.07305 | 72.62395 | 188 ft | 0 kts | 315° |
| 2026-05-09 07:29 | 23.07302 | 72.62398 | 230 ft | 3 kts | 314° |
| 2026-05-09 07:29 | 23.07287 | 72.62421 | 199 ft | 4 kts | 289° |
| 2026-05-09 07:29 | 23.07285 | 72.62449 | 198 ft | 4 kts | 257° |
| 2026-05-09 07:30 | 23.07295 | 72.62475 | 194 ft | 4 kts | 234° |
| 2026-05-09 07:30 | 23.07312 | 72.62497 | 204 ft | 2 kts | 226° |
| 2026-05-09 07:30 | 23.07313 | 72.62498 | 204 ft | 1 kts | 226° |
| 2026-05-09 07:31 | 23.07310 | 72.62495 | 204 ft | 3 kts | 226° |
| 2026-05-09 07:31 | 23.07293 | 72.62472 | 195 ft | 4 kts | 237° |
| 2026-05-09 07:31 | 23.07285 | 72.62445 | 198 ft | 4 kts | 262° |
| 2026-05-09 07:32 | 23.07289 | 72.62418 | 198 ft | 4 kts | 293° |
| 2026-05-09 07:32 | 23.07305 | 72.62395 | 216 ft | 3 kts | 314° |
| 2026-05-09 07:32 | 23.07307 | 72.62394 | 216 ft | 1 kts | 315° |
| 2026-05-09 07:36 | 23.07303 | 72.62398 | 231 ft | 4 kts | 313° |
| 2026-05-09 07:36 | 23.07288 | 72.62421 | 200 ft | 4 kts | 289° |
| 2026-05-09 07:36 | 23.07285 | 72.62449 | 198 ft | 4 kts | 258° |
| 2026-05-09 07:37 | 23.07295 | 72.62475 | 194 ft | 4 kts | 235° |
| 2026-05-09 07:37 | 23.07312 | 72.62496 | 206 ft | 2 kts | 226° |
| 2026-05-09 07:37 | 23.07313 | 72.62498 | 206 ft | 1 kts | 226° |
| 2026-05-09 07:42 | 23.07312 | 72.62497 | 206 ft | 1 kts | 227° |
| 2026-05-09 07:42 | 23.07299 | 72.62483 | 189 ft | 4 kts | 217° |
| 2026-05-09 07:42 | 23.07268 | 72.62479 | 196 ft | 5 kts | 155° |
| 2026-05-09 07:42 | 23.07243 | 72.62505 | 188 ft | 2 kts | 133° |
| 2026-05-09 07:43 | 23.07240 | 72.62508 | 191 ft | 0 kts | 134° |
| 2026-05-09 07:43 | 23.07224 | 72.62525 | 193 ft | 7 kts | 136° |
| 2026-05-09 07:43 | 23.07180 | 72.62569 | 200 ft | 10 kts | 129° |
| 2026-05-09 07:43 | 23.07192 | 72.62631 | 201 ft | 10 kts | 45° |
| 2026-05-09 07:44 | 23.07245 | 72.62688 | 193 ft | 12 kts | 44° |
| 2026-05-09 07:44 | 23.07312 | 72.62757 | 192 ft | 14 kts | 43° |
| 2026-05-09 07:44 | 23.07389 | 72.62835 | 197 ft | 16 kts | 43° |
| 2026-05-09 07:44 | 23.07466 | 72.62923 | 198 ft | 17 kts | 52° |
| 2026-05-09 07:45 | 23.07556 | 72.63017 | 195 ft | 19 kts | 43° |
| 2026-05-09 07:45 | 23.07654 | 72.63117 | 196 ft | 20 kts | 43° |
| 2026-05-09 07:45 | 23.07758 | 72.63229 | 197 ft | 23 kts | 45° |
| 2026-05-09 07:45 | 23.07871 | 72.63356 | 202 ft | 22 kts | 52° |
| 2026-05-09 07:46 | 23.07882 | 72.63411 | 196 ft | 7 kts | 108° |
| 2026-05-09 07:46 | 23.07846 | 72.63456 | 194 ft | 8 kts | 131° |
| 2026-05-09 07:46 | 23.07816 | 72.63509 | 203 ft | 8 kts | 105° |
| 2026-05-09 07:46 | 23.07832 | 72.63563 | 199 ft | 9 kts | 44° |
| 2026-05-09 07:47 | 23.07903 | 72.63637 | 200 ft | 23 kts | 44° |
| 2026-05-09 07:47 | 23.08051 | 72.63799 | 198 ft | 37 kts | 44° |
| 2026-05-09 07:47 | 23.08258 | 72.64025 | 206 ft | 44 kts | 42° |
| 2026-05-09 07:47 | 23.08468 | 72.64244 | 200 ft | 42 kts | 44° |
| 2026-05-09 07:48 | 23.08651 | 72.64438 | 206 ft | 36 kts | 45° |
| 2026-05-09 07:48 | 23.08763 | 72.64564 | 197 ft | 18 kts | 42° |
| 2026-05-09 07:48 | 23.08862 | 72.64608 | 192 ft | 4 kts | 73° |
| 2026-05-09 07:48 | 23.08855 | 72.64622 | 200 ft | 1 kts | 163° |
| 2026-05-09 07:49 | 23.08847 | 72.64623 | 192 ft | 2 kts | 174° |
| 2026-05-09 07:49 | 23.08829 | 72.64620 | 195 ft | 4 kts | 198° |
| 2026-05-09 07:49 | 23.08802 | 72.64603 | 199 ft | 5 kts | 223° |
| 2026-05-09 07:49 | 23.08771 | 72.64568 | 195 ft | 11 kts | 225° |
| 2026-05-09 07:50 | 23.08524 | 72.64307 | 204 ft | 94 kts | 223° |
| 2026-05-09 07:50 | 23.07868 | 72.63614 | 204 ft | 166 kts | 224° |
| 2026-05-09 07:50 | 23.07004 | 72.62693 | 383 ft | 180 kts | 219° |
| 2026-05-09 07:50 | 23.05980 | 72.61687 | 977 ft | 210 kts | 219° |
| 2026-05-09 07:51 | 23.04812 | 72.60486 | 1462 ft | 251 kts | 225° |
| 2026-05-09 07:51 | 23.03598 | 72.59037 | 2086 ft | 266 kts | 235° |
| 2026-05-09 07:51 | 23.02902 | 72.57118 | 2458 ft | 277 kts | 258° |
| 2026-05-09 07:51 | 23.02790 | 72.55077 | 3006 ft | 270 kts | 272° |
| 2026-05-09 07:52 | 23.03155 | 72.53092 | 3006 ft | 267 kts | 286° |
| 2026-05-09 07:52 | 23.03949 | 72.51284 | 3011 ft | 264 kts | 298° |
| 2026-05-09 07:52 | 23.05055 | 72.49696 | 3014 ft | 264 kts | 308° |
| 2026-05-09 07:52 | 23.06392 | 72.48336 | 3012 ft | 264 kts | 317° |
| 2026-05-09 07:53 | 23.07898 | 72.47196 | 3017 ft | 265 kts | 324° |
| 2026-05-09 07:53 | 23.09512 | 72.46232 | 3017 ft | 265 kts | 328° |
| 2026-05-09 07:53 | 23.11186 | 72.45399 | 3008 ft | 265 kts | 331° |
| 2026-05-09 07:53 | 23.12867 | 72.44590 | 3006 ft | 263 kts | 330° |
| 2026-05-09 07:54 | 23.14525 | 72.43749 | 3110 ft | 261 kts | 329° |
| 2026-05-09 07:54 | 23.16159 | 72.42865 | 3557 ft | 264 kts | 327° |
| 2026-05-09 07:54 | 23.17774 | 72.41893 | 4018 ft | 267 kts | 324° |
| 2026-05-09 07:54 | 23.19345 | 72.40804 | 4483 ft | 268 kts | 320° |
| 2026-05-09 07:55 | 23.20836 | 72.39578 | 4944 ft | 270 kts | 315° |
| 2026-05-09 07:55 | 23.22204 | 72.38203 | 5416 ft | 274 kts | 308° |
| 2026-05-09 07:55 | 23.23398 | 72.36602 | 6226 ft | 273 kts | 298° |
| 2026-05-09 07:55 | 23.24416 | 72.34788 | 6808 ft | 283 kts | 296° |
| 2026-05-09 07:56 | 23.25330 | 72.32924 | 7566 ft | 283 kts | 292° |
| 2026-05-09 07:56 | 23.26423 | 72.31086 | 8086 ft | 297 kts | 308° |
| 2026-05-09 07:56 | 23.28040 | 72.29688 | 8776 ft | 300 kts | 333° |
| 2026-05-09 07:56 | 23.30062 | 72.29296 | 9539 ft | 297 kts | 2° |
| 2026-05-09 07:57 | 23.32077 | 72.29727 | 10303 ft | 295 kts | 19° |
| 2026-05-09 07:57 | 23.33901 | 72.30712 | 11237 ft | 288 kts | 31° |
| 2026-05-09 07:57 | 23.35475 | 72.31978 | 12420 ft | 276 kts | 36° |
| 2026-05-09 07:57 | 23.37086 | 72.33127 | 13334 ft | 281 kts | 24° |